createdAt,value
2022-11-24T00:02:19.112Z,2.86
2022-11-24T00:04:51.001Z,2.94
2022-11-24T00:07:22.824Z,3.01
2022-11-24T00:09:54.609Z,3.14
2022-11-24T00:12:26.210Z,3.25
2022-11-24T00:14:57.926Z,3.33
2022-11-24T00:17:29.687Z,3.39
2022-11-24T00:20:01.348Z,3.39
2022-11-24T00:22:33.503Z,3.40
2022-11-24T00:25:05.743Z,3.43
2022-11-24T00:27:37.494Z,3.43
2022-11-24T00:30:11.055Z,3.40
2022-11-24T00:32:41.132Z,3.39
2022-11-24T00:35:13.122Z,3.38
2022-11-24T00:37:44.888Z,3.34
2022-11-24T00:40:17.158Z,3.33
2022-11-24T00:42:48.804Z,3.30
2022-11-24T00:45:20.664Z,3.26
2022-11-24T00:47:52.422Z,3.23
2022-11-24T00:50:24.087Z,3.19
2022-11-24T00:52:55.848Z,3.15
2022-11-24T00:55:27.595Z,3.10
2022-11-24T00:57:59.352Z,3.09
2022-11-24T01:00:30.987Z,3.09
2022-11-24T01:03:02.763Z,3.12
2022-11-24T01:05:36.986Z,3.17
2022-11-24T01:08:09.063Z,3.24
2022-11-24T01:10:41.335Z,3.30
2022-11-24T01:13:13.604Z,3.35
2022-11-24T01:15:45.311Z,3.42
2022-11-24T01:18:16.971Z,3.49
2022-11-24T01:20:48.676Z,3.58
2022-11-24T01:23:20.434Z,3.64
2022-11-24T01:25:52.086Z,3.64
2022-11-24T01:28:23.952Z,3.62
2022-11-24T01:31:01.830Z,3.60
2022-11-24T01:33:34.116Z,3.60
2022-11-24T01:36:07.393Z,3.59
2022-11-24T01:38:39.156Z,3.58
2022-11-24T01:41:14.166Z,3.55
2022-11-24T01:43:47.873Z,3.50
2022-11-24T01:46:21.200Z,3.45
2022-11-24T01:49:02.693Z,3.42
2022-11-24T01:51:38.073Z,3.37
2022-11-24T01:54:15.637Z,3.33
2022-11-24T01:56:50.873Z,3.29
2022-11-24T01:59:23.970Z,3.25
2022-11-24T02:01:57.807Z,3.21
2022-11-24T02:04:34.065Z,3.17
2022-11-24T02:07:08.390Z,3.15
2022-11-24T02:09:44.475Z,3.16
2022-11-24T02:12:16.264Z,3.20
2022-11-24T02:14:48.505Z,3.26
2022-11-24T02:17:20.199Z,3.32
2022-11-24T02:19:56.452Z,3.38
2022-11-24T02:22:40.921Z,3.46
2022-11-24T02:25:19.708Z,3.57
2022-11-24T10:11:42.407Z,1.63
2022-11-24T10:14:48.037Z,1.64
2022-11-24T10:17:34.896Z,1.71
2022-11-24T10:20:12.554Z,1.81
2022-11-24T10:22:52.799Z,1.91
2022-11-24T10:25:31.926Z,2.05
2022-11-24T10:28:09.386Z,2.19
2022-11-24T10:30:41.295Z,2.36
2022-11-24T10:33:20.259Z,2.54
2022-11-24T10:35:56.942Z,2.65
2022-11-24T10:38:36.717Z,2.71
2022-11-24T10:41:14.423Z,2.80
2022-11-24T10:43:46.221Z,2.87
2022-11-24T10:46:24.754Z,2.98
2022-11-24T10:49:01.289Z,3.12
2022-11-24T10:51:50.943Z,3.24
2022-11-24T10:54:24.834Z,3.31
2022-11-24T10:56:57.179Z,3.32
2022-11-24T10:59:42.341Z,3.36
2022-11-24T11:02:32.708Z,3.36
2022-11-24T11:05:27.401Z,3.30
2022-11-24T11:08:20.917Z,3.30
2022-11-24T11:11:13.043Z,3.29
2022-11-24T11:13:58.199Z,3.25
2022-11-24T11:16:38.038Z,3.24
2022-11-24T11:19:48.837Z,3.23
2022-11-24T11:22:25.932Z,3.23
2022-11-24T11:25:19.451Z,3.25
2022-11-24T11:27:51.456Z,3.30
2022-11-24T11:36:18.332Z,3.52
2022-11-24T11:38:50.452Z,3.58
2022-11-24T11:41:26.954Z,3.64
2022-11-24T11:44:10.256Z,3.70
2022-11-24T11:46:42.804Z,3.77
2022-11-24T11:49:15.337Z,3.82
2022-11-24T11:52:04.160Z,3.82
2022-11-24T11:55:04.862Z,3.79
2022-11-24T11:57:45.750Z,3.75
2022-11-24T12:00:20.228Z,3.70
2022-11-24T12:03:13.453Z,3.64
2022-11-24T12:06:00.452Z,3.59
2022-11-24T12:09:11.784Z,3.52
2022-11-24T12:11:44.426Z,3.45
2022-11-24T12:14:32.198Z,3.36
2022-11-24T12:17:11.566Z,3.34
2022-11-24T12:20:04.536Z,3.32
2022-11-24T12:22:44.591Z,3.40
2022-11-24T12:25:27.156Z,3.51
2022-11-24T12:28:17.609Z,3.59
2022-11-24T12:31:00.219Z,3.67
2022-11-24T12:33:50.966Z,3.75
2022-11-24T12:36:42.334Z,3.84
2022-11-24T12:39:26.632Z,3.90
2022-11-24T12:42:10.755Z,3.94
2022-11-24T12:45:13.212Z,3.88
2022-11-24T12:48:11.243Z,3.81
2022-11-24T12:50:45.248Z,3.82
2022-11-24T12:53:21.461Z,3.79
2022-11-24T12:55:54.992Z,3.75
2022-11-24T12:58:40.915Z,3.69
2022-11-24T13:01:24.690Z,3.65
2022-11-24T13:04:12.048Z,3.62
2022-11-24T13:06:52.952Z,3.56
2022-11-24T13:09:24.429Z,3.51
2022-11-24T13:12:06.548Z,3.50
2022-11-24T13:14:40.308Z,3.51
2022-11-24T13:20:31.716Z,3.62
2022-11-24T13:23:08.506Z,3.67
2022-11-24T13:25:42.349Z,3.79
2022-11-24T13:29:03.221Z,3.89
2022-11-24T13:31:37.732Z,3.97
2022-11-24T13:34:40.041Z,3.97
2022-11-24T13:37:31.138Z,3.95
2022-11-24T13:40:59.778Z,3.91
2022-11-24T13:43:36.836Z,3.87
2022-11-24T13:46:12.335Z,3.85
2022-11-24T13:49:03.108Z,3.81
2022-11-24T13:51:34.777Z,3.75
2022-11-24T13:54:11.596Z,3.64
2022-11-24T13:56:43.362Z,3.46
2022-11-24T13:59:27.192Z,3.22
2022-11-24T14:01:59.300Z,2.99
2022-11-24T14:04:33.475Z,2.88
2022-11-24T14:07:12.325Z,2.77
2022-11-24T14:09:46.723Z,2.64
2022-11-24T14:12:20.380Z,2.61
2022-11-24T14:14:55.610Z,2.66
2022-11-24T14:17:28.773Z,2.73
2022-11-24T14:20:00.966Z,2.84
2022-11-24T14:22:40.559Z,2.93
2022-11-24T14:25:27.661Z,2.99
2022-11-24T14:28:00.532Z,3.12
2022-11-24T14:30:32.512Z,3.24
2022-11-24T14:33:05.949Z,3.30
2022-11-24T14:35:43.624Z,3.39
2022-11-24T14:38:15.738Z,3.39
2022-11-24T14:40:49.803Z,3.39
2022-11-24T14:43:25.500Z,3.37
2022-11-24T14:45:59.993Z,3.31
2022-11-24T14:48:36.351Z,3.26
2022-11-24T14:51:15.564Z,3.20
2022-11-24T14:53:50.171Z,3.15
2022-11-24T14:56:33.952Z,3.07
2022-11-24T14:59:04.839Z,3.04
2022-11-24T15:01:37.188Z,3.00
2022-11-24T15:07:29.065Z,2.90
2022-11-24T15:10:03.580Z,2.86
2022-11-24T15:12:38.733Z,2.80
2022-11-24T15:15:21.240Z,2.69
2022-11-24T15:17:56.895Z,2.75
2022-11-24T15:20:32.119Z,2.79
2022-11-24T15:23:24.748Z,2.85
2022-11-24T15:25:57.694Z,2.93
2022-11-24T15:28:29.965Z,3.02
2022-11-24T15:31:04.625Z,3.11
2022-11-24T15:33:36.315Z,3.16
2022-11-24T15:36:08.820Z,3.21
2022-11-24T15:38:40.591Z,3.26
2022-11-24T15:41:20.316Z,3.31
2022-11-24T15:43:58.919Z,3.28
2022-11-24T15:46:37.881Z,3.24
2022-11-24T15:49:10.387Z,3.24
2022-11-24T15:51:48.770Z,3.23
2022-11-24T15:54:21.395Z,3.19
2022-11-24T15:56:53.173Z,3.15
2022-11-24T15:59:24.873Z,3.11
2022-11-24T16:01:56.518Z,3.07
2022-11-24T16:04:28.458Z,3.01
2022-11-24T16:07:00.708Z,2.94
2022-11-24T16:09:32.404Z,2.87
2022-11-24T16:12:04.279Z,2.81
2022-11-24T16:14:36.350Z,2.80
2022-11-24T16:17:08.389Z,2.79
2022-11-24T16:19:41.965Z,2.75
2022-11-24T16:22:13.912Z,2.81
2022-11-24T16:24:45.456Z,2.91
2022-11-24T16:27:17.065Z,3.00
2022-11-24T16:29:48.625Z,3.07
2022-11-24T16:32:20.459Z,3.16
2022-11-24T16:34:52.107Z,3.12
2022-11-24T16:37:23.787Z,3.20
2022-11-24T16:39:55.412Z,3.28
2022-11-24T16:42:27.389Z,3.32
2022-11-24T16:44:59.123Z,3.32
2022-11-24T16:47:30.807Z,3.28
2022-11-24T16:50:02.341Z,3.26
2022-11-24T16:52:33.867Z,3.24
2022-11-24T16:55:05.821Z,3.21
2022-11-24T16:57:38.011Z,3.13
2022-11-24T17:00:12.368Z,3.08
2022-11-24T17:02:43.953Z,3.05
2022-11-24T17:05:16.536Z,3.01
2022-11-24T17:07:48.799Z,2.92
2022-11-24T17:10:20.721Z,2.84
2022-11-24T17:12:52.251Z,2.79
2022-11-24T17:15:34.509Z,2.78
2022-11-24T17:18:24.124Z,2.80
2022-11-24T17:21:03.178Z,2.86
2022-11-24T17:23:38.773Z,2.90
2022-11-24T17:26:12.418Z,2.93
2022-11-24T17:28:45.120Z,3.02
2022-11-24T17:31:21.857Z,3.07
2022-11-24T17:33:56.175Z,3.15
2022-11-24T17:36:28.560Z,3.17
2022-11-24T17:39:03.116Z,3.11
2022-11-24T17:41:35.163Z,3.05
2022-11-24T17:44:08.667Z,3.06
2022-11-24T17:46:40.365Z,3.08
2022-11-24T17:49:13.199Z,3.09
2022-11-24T17:51:46.312Z,3.06
2022-11-24T17:57:10.183Z,2.89
2022-11-24T17:59:41.903Z,2.86
2022-11-24T18:02:13.892Z,2.81
2022-11-24T18:04:45.651Z,2.78
2022-11-24T18:07:17.638Z,2.74
2022-11-24T18:09:49.518Z,2.72
2022-11-24T18:12:21.146Z,2.72
2022-11-24T18:14:52.763Z,2.75
2022-11-24T18:17:24.640Z,2.80
2022-11-24T18:19:56.207Z,2.86
2022-11-24T18:22:50.152Z,2.91
2022-11-24T18:25:19.585Z,2.92
2022-11-24T18:27:51.315Z,2.98
2022-11-24T18:30:23.031Z,3.06
2022-11-24T18:32:54.596Z,3.09
2022-11-24T18:35:26.550Z,3.10
2022-11-24T18:37:58.090Z,3.14
2022-11-24T18:40:29.723Z,3.17
2022-11-24T18:43:01.382Z,3.15
2022-11-24T18:45:33.175Z,3.09
2022-11-24T18:48:05.103Z,3.04
2022-11-24T18:50:36.676Z,3.00
2022-11-24T18:53:08.279Z,2.95
2022-11-24T18:55:39.806Z,2.88
2022-11-24T18:58:11.453Z,2.81
2022-11-24T19:00:43.090Z,2.72
2022-11-24T19:03:14.746Z,2.70
2022-11-24T19:05:46.702Z,2.71
2022-11-24T19:08:18.249Z,2.71
2022-11-24T19:10:50.109Z,2.71
2022-11-24T19:13:21.843Z,2.75
2022-11-24T19:15:53.638Z,2.83
2022-11-24T19:18:25.198Z,2.89
2022-11-24T19:20:58.376Z,3.00
2022-11-24T19:23:30.076Z,3.08
2022-11-24T19:26:04.285Z,3.10
2022-11-24T19:28:36.236Z,3.15
2022-11-24T19:31:09.523Z,3.15
2022-11-24T19:33:41.513Z,3.13
2022-11-24T19:36:15.769Z,3.14
2022-11-24T19:38:52.135Z,3.16
2022-11-24T19:41:25.964Z,3.14
2022-11-24T19:43:58.657Z,3.10
2022-11-24T19:46:31.084Z,3.09
2022-11-24T19:49:04.584Z,3.07
2022-11-24T19:51:38.492Z,3.05
2022-11-24T19:54:13.878Z,3.01
2022-11-24T19:56:45.454Z,2.93
2022-11-24T19:59:17.335Z,2.87
2022-11-24T20:01:48.960Z,2.81
2022-11-24T20:04:21.287Z,2.78
2022-11-24T20:06:52.825Z,2.79
2022-11-24T20:09:28.753Z,2.82
2022-11-24T20:12:09.793Z,2.88
2022-11-24T20:14:41.348Z,2.97
2022-11-24T20:17:14.009Z,3.03
2022-11-24T20:19:45.701Z,3.02
2022-11-24T20:22:17.350Z,3.02
2022-11-24T20:24:48.931Z,3.08
2022-11-24T20:27:20.533Z,3.11
2022-11-24T20:29:52.076Z,3.13
2022-11-24T20:32:23.652Z,3.19
2022-11-24T20:34:55.206Z,3.21
2022-11-24T20:37:28.484Z,3.24
2022-11-24T20:40:02.348Z,3.25
2022-11-24T20:42:35.509Z,3.21
2022-11-24T20:45:08.637Z,3.17
2022-11-24T20:47:40.145Z,3.12
2022-11-24T20:50:12.868Z,3.08
2022-11-24T20:52:44.420Z,3.05
2022-11-24T20:55:16.168Z,3.00
2022-11-24T20:57:47.999Z,2.93
2022-11-24T21:00:20.482Z,2.88
2022-11-24T21:02:52.047Z,2.85
2022-11-24T21:05:23.685Z,2.86
2022-11-24T21:07:55.246Z,2.88
2022-11-24T21:10:26.900Z,2.87
2022-11-24T21:12:58.437Z,2.85
2022-11-24T21:15:30.625Z,2.91
2022-11-24T21:18:02.173Z,3.00
2022-11-24T21:20:35.977Z,3.02
2022-11-24T21:23:07.530Z,3.08
2022-11-24T21:25:39.127Z,3.16
2022-11-24T21:28:12.874Z,3.22
2022-11-24T21:30:44.566Z,3.23
2022-11-24T21:33:16.918Z,3.23
2022-11-24T21:35:48.645Z,3.19
2022-11-24T21:38:20.295Z,3.13
2022-11-24T21:40:51.920Z,3.07
2022-11-24T21:43:23.659Z,3.00
2022-11-24T21:45:55.368Z,2.95
2022-11-24T21:48:26.961Z,2.91
2022-11-24T21:51:01.694Z,2.87
2022-11-24T21:53:35.662Z,2.83
2022-11-24T21:56:12.761Z,2.74
2022-11-24T21:58:48.756Z,2.65
2022-11-24T22:01:23.189Z,2.68
2022-11-24T22:03:54.902Z,2.74
2022-11-24T22:06:26.503Z,2.84
2022-11-24T22:08:58.023Z,2.88
2022-11-24T22:11:29.529Z,2.93
2022-11-24T22:14:01.233Z,2.97
2022-11-24T22:16:33.052Z,2.99
2022-11-24T22:19:05.005Z,2.99
2022-11-24T22:21:36.529Z,2.95
2022-11-24T22:24:09.344Z,2.85
2022-11-24T22:26:40.850Z,2.83
2022-11-24T22:29:12.351Z,2.84
2022-11-24T22:31:43.956Z,2.86
2022-11-24T22:34:15.514Z,2.87
2022-11-24T22:36:46.973Z,2.83
2022-11-24T22:39:18.537Z,2.80
2022-11-24T22:41:50.028Z,2.77
2022-11-24T22:44:21.532Z,2.73
2022-11-24T22:46:53.179Z,2.66
2022-11-24T22:49:24.724Z,2.62
2022-11-24T22:51:56.207Z,2.63
2022-11-24T22:54:27.848Z,2.70
2022-11-24T22:56:59.358Z,2.80
2022-11-24T22:59:30.870Z,2.91
2022-11-24T23:02:02.413Z,3.02
2022-11-24T23:04:34.268Z,3.10
2022-11-24T23:07:06.038Z,3.09
2022-11-24T23:09:37.575Z,3.16
2022-11-24T23:12:09.775Z,3.21
2022-11-24T23:14:41.243Z,3.23
2022-11-24T23:17:12.731Z,3.28
2022-11-24T23:19:44.288Z,3.28
2022-11-24T23:22:15.754Z,3.29
2022-11-24T23:24:47.255Z,3.27
2022-11-24T23:27:18.716Z,3.24
2022-11-24T23:29:50.253Z,3.19
2022-11-24T23:32:21.837Z,3.15
2022-11-24T23:34:53.515Z,3.08
2022-11-24T23:37:39.270Z,3.01
2022-11-24T23:40:16.869Z,2.96
2022-11-24T23:42:50.530Z,2.91
2022-11-24T23:45:20.485Z,2.88
2022-11-24T23:47:54.010Z,2.88
2022-11-24T23:50:25.653Z,2.90
2022-11-24T23:52:57.192Z,2.91
2022-11-24T23:55:28.737Z,2.96
2022-11-24T23:58:00.296Z,3.02
